Time;durP1;ratioP1;P1;durP2;ratioP2;P2;SDS_P1;SDS_P2;PMS_P1;PMS_P2;Temp;Humidity;BMP_temperature;BMP_pressure;BME280_temperature;BME280_humidity;BME280_pressure;Samples;Min_cycle;Max_cycle;Signal;HPM_P1;HPM_P2
2021/10/09 00:00:16;;;;;;;49.93;44.63;;;;;;;;;;5073579;28;20448;-86
2021/10/09 00:02:44;;;;;;;46.80;42.03;;;;;;;;;;5073496;28;20448;-86
2021/10/09 00:05:11;;;;;;;49.83;44.83;;;;;;;;;;5073788;28;20405;-86
2021/10/09 00:07:38;;;;;;;46.80;42.23;;;;;;;;;;5073765;28;20408;-86
2021/10/09 00:10:07;;;;;;;45.57;40.90;;;;;;;;;;5076775;28;20451;-85
2021/10/09 00:12:35;;;;;;;49.53;44.60;;;;;;;;;;5077658;28;20440;-86
2021/10/09 00:15:02;;;;;;;48.57;43.70;;;;;;;;;;5077516;28;20434;-87
2021/10/09 00:17:31;;;;;;;46.43;41.57;;;;;;;;;;5077254;28;20506;-85
2021/10/09 00:19:58;;;;;;;47.53;43.00;;;;;;;;;;5077486;28;20405;-86
2021/10/09 00:22:26;;;;;;;44.50;40.27;;;;;;;;;;5077339;28;20444;-85
2021/10/09 00:24:53;;;;;;;46.67;41.97;;;;;;;;;;5077620;28;20461;-86
2021/10/09 00:27:20;;;;;;;47.47;42.97;;;;;;;;;;5077159;28;20879;-86
2021/10/09 00:29:48;;;;;;;46.50;42.10;;;;;;;;;;5077200;28;20470;-86
2021/10/09 00:32:15;;;;;;;46.90;42.40;;;;;;;;;;5077318;28;20449;-85
2021/10/09 00:34:44;;;;;;;44.37;40.07;;;;;;;;;;5077018;28;20447;-86
2021/10/09 00:37:11;;;;;;;47.30;42.80;;;;;;;;;;5076744;28;20480;-86
2021/10/09 00:39:39;;;;;;;46.10;41.23;;;;;;;;;;5077246;28;20445;-86
2021/10/09 00:42:06;;;;;;;48.93;44.13;;;;;;;;;;5077032;28;20450;-86
2021/10/09 00:44:33;;;;;;;46.63;42.10;;;;;;;;;;5076777;28;20416;-86
2021/10/09 00:47:02;;;;;;;48.60;43.70;;;;;;;;;;5077021;28;20412;-87
2021/10/09 00:49:30;;;;;;;45.70;40.80;;;;;;;;;;5075617;28;20819;-86
2021/10/09 00:52:00;;;;;;;50.03;45.23;;;;;;;;;;5076445;28;20409;-86
2021/10/09 00:54:27;;;;;;;47.70;43.10;;;;;;;;;;5076843;28;20433;-86
2021/10/09 00:56:57;;;;;;;45.20;40.90;;;;;;;;;;5076482;28;20479;-85
2021/10/09 00:59:26;;;;;;;46.30;41.73;;;;;;;;;;5076638;28;20412;-85
2021/10/09 01:01:54;;;;;;;46.07;41.43;;;;;;;;;;5076785;28;20458;-86
2021/10/09 01:04:22;;;;;;;46.60;42.00;;;;;;;;;;5076600;28;20448;-86
2021/10/09 01:06:49;;;;;;;47.57;43.07;;;;;;;;;;5076664;28;20445;-86
2021/10/09 01:09:18;;;;;;;46.83;41.80;;;;;;;;;;5076643;28;20412;-86
2021/10/09 01:11:46;;;;;;;46.00;41.50;;;;;;;;;;5076504;28;20404;-86
2021/10/09 01:14:13;;;;;;;47.00;42.37;;;;;;;;;;5076563;28;20459;-86
2021/10/09 01:16:41;;;;;;;47.87;43.03;;;;;;;;;;5076472;28;20438;-86
2021/10/09 01:19:09;;;;;;;47.07;42.20;;;;;;;;;;5075842;28;20478;-86
2021/10/09 01:21:41;;;;;;;47.10;42.60;;;;;;;;;;5075123;28;20492;-86
2021/10/09 01:24:08;;;;;;;47.73;43.13;;;;;;;;;;5076640;28;20434;-86
2021/10/09 01:26:36;;;;;;;48.33;43.03;;;;;;;;;;5075995;28;20448;-86
2021/10/09 01:29:05;;;;;;;46.10;41.47;;;;;;;;;;5076010;28;20401;-87
2021/10/09 01:31:32;;;;;;;45.20;39.60;;;;;;;;;;5075821;28;20819;-86
2021/10/09 01:34:00;;;;;;;46.20;41.23;;;;;;;;;;5075796;28;20755;-87
2021/10/09 01:36:30;;;;;;;46.60;42.10;;;;;;;;;;5075810;28;20438;-86
2021/10/09 01:38:59;;;;;;;45.87;41.27;;;;;;;;;;5075653;28;20487;-86
2021/10/09 01:41:26;;;;;;;47.27;42.40;;;;;;;;;;5075510;28;20423;-86
2021/10/09 01:43:54;;;;;;;49.57;43.27;;;;;;;;;;5075812;28;20424;-87
2021/10/09 01:46:21;;;;;;;47.23;42.43;;;;;;;;;;5075788;28;20444;-85
2021/10/09 01:48:48;;;;;;;51.20;45.77;;;;;;;;;;5075556;28;20443;-86
2021/10/09 01:51:16;;;;;;;48.63;43.60;;;;;;;;;;5075783;28;20463;-85
2021/10/09 01:53:45;;;;;;;48.40;43.40;;;;;;;;;;5075589;28;20424;-86
2021/10/09 01:56:14;;;;;;;47.10;42.60;;;;;;;;;;5075567;28;20457;-86
2021/10/09 01:58:41;;;;;;;49.20;44.07;;;;;;;;;;5075330;28;20968;-86
2021/10/09 02:01:09;;;;;;;49.60;44.90;;;;;;;;;;5075713;28;20423;-85
2021/10/09 02:03:36;;;;;;;49.50;44.73;;;;;;;;;;5075762;28;20448;-85
2021/10/09 02:06:04;;;;;;;49.47;44.47;;;;;;;;;;5075448;28;20443;-86
2021/10/09 02:08:31;;;;;;;49.70;44.60;;;;;;;;;;5075300;28;20485;-86
2021/10/09 02:11:02;;;;;;;50.80;46.00;;;;;;;;;;5074036;28;20833;-86
2021/10/09 02:13:37;;;;;;;52.37;46.73;;;;;;;;;;5075342;28;20446;-86
2021/10/09 02:16:11;;;;;;;52.47;47.17;;;;;;;;;;5073923;28;20437;-87
2021/10/09 02:18:59;;;;;;;63.73;50.50;;;;;;;;;;5074688;28;20497;-86
2021/10/09 02:26:52;;;;;;;47.83;43.00;;;;;;;;;;5073221;28;20457;-86
2021/10/09 02:29:21;;;;;;;48.13;43.23;;;;;;;;;;5073787;28;20449;-86
2021/10/09 02:31:48;;;;;;;45.37;40.77;;;;;;;;;;5074916;28;20743;-86
2021/10/09 02:34:16;;;;;;;46.27;41.43;;;;;;;;;;5074730;28;20430;-86
2021/10/09 02:36:43;;;;;;;46.67;41.77;;;;;;;;;;5074916;28;20452;-86
2021/10/09 02:39:11;;;;;;;46.20;41.80;;;;;;;;;;5074491;28;20485;-86
2021/10/09 02:41:38;;;;;;;47.33;42.43;;;;;;;;;;5074742;28;20763;-86
2021/10/09 02:44:06;;;;;;;46.00;41.50;;;;;;;;;;5073278;28;20501;-86
2021/10/09 02:46:35;;;;;;;44.57;40.20;;;;;;;;;;5074539;28;20506;-86
2021/10/09 02:49:03;;;;;;;47.23;42.23;;;;;;;;;;5074326;28;20412;-86
2021/10/09 02:51:30;;;;;;;47.20;42.17;;;;;;;;;;5074974;28;20408;-85
2021/10/09 02:53:57;;;;;;;46.20;42.03;;;;;;;;;;5074277;28;20441;-86
2021/10/09 02:56:25;;;;;;;47.40;43.00;;;;;;;;;;5074434;28;20423;-86
2021/10/09 02:58:52;;;;;;;45.47;41.07;;;;;;;;;;5074423;28;20477;-86
2021/10/09 03:01:19;;;;;;;46.73;42.07;;;;;;;;;;5074501;28;20412;-86
2021/10/09 03:03:48;;;;;;;48.20;43.33;;;;;;;;;;5074633;28;20427;-86
2021/10/09 03:06:16;;;;;;;47.60;42.57;;;;;;;;;;5074388;28;20912;-86
2021/10/09 03:08:43;;;;;;;47.90;43.07;;;;;;;;;;5074289;28;20420;-86
2021/10/09 03:11:10;;;;;;;48.33;43.27;;;;;;;;;;5074454;28;20413;-86
2021/10/09 03:13:38;;;;;;;47.33;42.83;;;;;;;;;;5074078;28;20408;-86
2021/10/09 03:16:05;;;;;;;46.87;42.20;;;;;;;;;;5074002;28;20415;-85
2021/10/09 03:18:33;;;;;;;46.60;41.60;;;;;;;;;;5073739;28;20475;-87
2021/10/09 03:21:01;;;;;;;45.60;41.03;;;;;;;;;;5073982;28;20476;-86
2021/10/09 03:23:29;;;;;;;43.63;39.07;;;;;;;;;;5074314;28;20449;-86
2021/10/09 03:25:56;;;;;;;44.30;40.07;;;;;;;;;;5073800;28;20901;-85
2021/10/09 03:28:24;;;;;;;43.10;38.80;;;;;;;;;;5073898;28;20408;-86
2021/10/09 03:30:51;;;;;;;42.37;38.27;;;;;;;;;;5073661;28;20881;-86
2021/10/09 03:33:19;;;;;;;43.50;39.13;;;;;;;;;;5074363;28;20426;-86
2021/10/09 03:35:46;;;;;;;44.03;40.03;;;;;;;;;;5074145;28;20411;-86
2021/10/09 03:38:15;;;;;;;43.80;39.43;;;;;;;;;;5072933;28;20463;-86
2021/10/09 03:40:46;;;;;;;41.93;38.03;;;;;;;;;;5074063;28;20462;-86
2021/10/09 03:43:16;;;;;;;42.37;38.27;;;;;;;;;;5073072;28;20466;-85
2021/10/09 03:45:49;;;;;;;41.50;37.60;;;;;;;;;;5074108;28;20440;-86
2021/10/09 03:48:32;;;;;;;42.90;38.50;;;;;;;;;;5073538;28;20480;-86
2021/10/09 03:53:46;;;;;;;41.20;37.20;;;;;;;;;;5073676;28;20433;-86
2021/10/09 03:56:13;;;;;;;40.93;37.00;;;;;;;;;;5073581;28;20434;-85
2021/10/09 03:58:40;;;;;;;41.20;37.27;;;;;;;;;;5074022;28;20503;-86
2021/10/09 04:01:08;;;;;;;41.67;37.70;;;;;;;;;;5073777;28;20445;-86
2021/10/09 04:03:35;;;;;;;40.90;37.07;;;;;;;;;;5073261;28;20412;-86
2021/10/09 04:06:02;;;;;;;43.20;38.63;;;;;;;;;;5073468;28;20416;-87
2021/10/09 04:08:30;;;;;;;42.00;38.37;;;;;;;;;;5073125;28;20437;-86
2021/10/09 04:10:59;;;;;;;40.43;36.63;;;;;;;;;;5072148;28;20947;-86
2021/10/09 04:13:26;;;;;;;40.30;36.60;;;;;;;;;;5073463;28;20412;-86
2021/10/09 04:15:54;;;;;;;41.73;37.90;;;;;;;;;;5073748;28;20415;-85
2021/10/09 04:18:21;;;;;;;39.13;35.47;;;;;;;;;;5073499;28;20470;-85
2021/10/09 04:20:49;;;;;;;40.45;36.20;;;;;;;;;;5073469;28;20822;-86
2021/10/09 04:23:16;;;;;;;40.97;36.97;;;;;;;;;;5073753;28;20194;-86
2021/10/09 04:25:44;;;;;;;41.03;37.20;;;;;;;;;;5073479;28;20194;-86
2021/10/09 04:28:12;;;;;;;40.10;36.40;;;;;;;;;;5073701;28;20419;-86
2021/10/09 04:30:40;;;;;;;39.57;35.93;;;;;;;;;;5073302;28;20415;-86
2021/10/09 04:33:07;;;;;;;41.63;37.47;;;;;;;;;;5073175;28;20407;-86
2021/10/09 04:35:35;;;;;;;39.73;36.23;;;;;;;;;;5072021;28;20471;-86
2021/10/09 04:38:08;;;;;;;41.77;37.70;;;;;;;;;;5073333;28;20441;-86
2021/10/09 04:40:36;;;;;;;41.20;37.40;;;;;;;;;;5073137;28;20893;-85
2021/10/09 04:43:03;;;;;;;43.43;38.90;;;;;;;;;;5073208;28;20434;-85
2021/10/09 04:45:32;;;;;;;41.97;37.73;;;;;;;;;;5072977;28;20440;-86
2021/10/09 04:48:00;;;;;;;39.57;35.90;;;;;;;;;;5073263;28;20524;-86
2021/10/09 04:50:27;;;;;;;42.87;38.63;;;;;;;;;;5073172;28;20437;-86
2021/10/09 04:52:54;;;;;;;42.05;37.95;;;;;;;;;;5073192;28;20905;-86
2021/10/09 04:55:22;;;;;;;42.60;38.42;;;;;;;;;;5073189;28;20191;-86
2021/10/09 04:57:49;;;;;;;43.07;38.90;;;;;;;;;;5076936;28;20186;-84
2021/10/09 05:00:17;;;;;;;46.10;41.63;;;;;;;;;;5075428;28;20452;-86
2021/10/09 05:02:46;;;;;;;44.53;39.70;;;;;;;;;;5075619;28;20946;-86
2021/10/09 05:05:13;;;;;;;46.78;42.00;;;;;;;;;;5076848;28;20434;-86
2021/10/09 05:07:40;;;;;;;49.63;44.22;;;;;;;;;;5076374;28;20680;-86
2021/10/09 05:10:09;;;;;;;53.25;46.50;;;;;;;;;;5076260;28;20198;-86
2021/10/09 05:12:36;;;;;;;53.67;47.50;;;;;;;;;;5076398;28;20672;-86
2021/10/09 05:15:04;;;;;;;58.00;48.63;;;;;;;;;;5076677;28;20432;-86
2021/10/09 05:17:31;;;;;;;62.53;49.07;;;;;;;;;;5075029;28;20203;-85
2021/10/09 05:20:00;;;;;;;58.63;48.87;;;;;;;;;;5076319;28;20466;-85
2021/10/09 05:22:30;;;;;;;54.47;48.50;;;;;;;;;;5076465;28;20445;-86
2021/10/09 05:24:57;;;;;;;56.57;48.77;;;;;;;;;;5076251;28;20453;-86
2021/10/09 05:27:27;;;;;;;52.90;46.47;;;;;;;;;;5076303;28;20422;-86
2021/10/09 05:29:54;;;;;;;57.73;48.20;;;;;;;;;;5076064;28;20776;-86
2021/10/09 05:32:24;;;;;;;62.20;49.70;;;;;;;;;;5076035;28;20431;-86
2021/10/09 05:34:51;;;;;;;59.67;53.07;;;;;;;;;;5076072;28;20456;-86
2021/10/09 05:37:20;;;;;;;56.30;49.60;;;;;;;;;;5075941;28;20400;-85
2021/10/09 05:39:47;;;;;;;56.63;50.30;;;;;;;;;;5075891;28;20466;-86
2021/10/09 05:42:15;;;;;;;62.47;50.33;;;;;;;;;;5074731;28;20426;-86
2021/10/09 05:44:42;;;;;;;60.63;49.47;;;;;;;;;;5076131;28;20438;-86
2021/10/09 05:47:10;;;;;;;52.90;47.30;;;;;;;;;;5075930;28;20442;-87
2021/10/09 05:49:38;;;;;;;57.73;47.40;;;;;;;;;;5075808;28;20415;-86
2021/10/09 05:52:09;;;;;;;53.60;48.20;;;;;;;;;;5075902;28;20427;-87
2021/10/09 05:54:42;;;;;;;52.33;46.60;;;;;;;;;;5075675;28;20456;-86
2021/10/09 05:57:12;;;;;;;51.23;46.03;;;;;;;;;;5075432;28;20523;-85
2021/10/09 07:00:29;;;;;;;44.28;40.10;;;;;;;;;;5012343;28;20298;-84
2021/10/09 07:02:56;;;;;;;43.20;39.00;;;;;;;;;;5012149;28;20223;-83
2021/10/09 07:05:24;;;;;;;42.07;38.07;;;;;;;;;;5012159;28;20534;-84
2021/10/09 07:07:54;;;;;;;42.80;38.53;;;;;;;;;;5012069;28;20415;-84
2021/10/09 07:10:22;;;;;;;41.37;37.37;;;;;;;;;;5011710;28;21015;-84
2021/10/09 07:12:49;;;;;;;41.13;37.07;;;;;;;;;;5012009;28;20443;-84
2021/10/09 07:15:18;;;;;;;42.23;38.03;;;;;;;;;;5011801;28;20424;-82
2021/10/09 07:17:47;;;;;;;41.63;37.60;;;;;;;;;;5011643;28;20430;-84
2021/10/09 07:20:15;;;;;;;41.07;37.37;;;;;;;;;;5011175;28;20613;-84
2021/10/09 07:22:45;;;;;;;43.03;38.60;;;;;;;;;;5019327;28;20453;-84
2021/10/09 07:25:12;;;;;;;43.97;39.80;;;;;;;;;;5073742;28;20526;-84
2021/10/09 07:27:40;;;;;;;41.03;37.13;;;;;;;;;;5073352;28;20427;-84
2021/10/09 07:30:07;;;;;;;41.83;37.87;;;;;;;;;;5073191;28;20424;-83
2021/10/09 07:32:35;;;;;;;40.87;37.17;;;;;;;;;;5073528;28;20436;-84
2021/10/09 07:35:04;;;;;;;40.37;36.57;;;;;;;;;;5073529;28;20410;-83
2021/10/09 07:37:31;;;;;;;40.13;36.33;;;;;;;;;;5073330;28;20416;-83
2021/10/09 07:39:59;;;;;;;41.93;38.23;;;;;;;;;;5071948;28;20487;-84
2021/10/09 07:42:26;;;;;;;39.70;35.80;;;;;;;;;;5073193;28;20445;-83
2021/10/09 07:44:54;;;;;;;39.27;35.57;;;;;;;;;;5073194;28;20191;-84
2021/10/09 07:47:21;;;;;;;41.83;37.67;;;;;;;;;;5073371;28;20447;-84
2021/10/09 07:49:48;;;;;;;42.20;38.20;;;;;;;;;;5073080;28;20404;-84
2021/10/09 07:52:17;;;;;;;40.20;36.60;;;;;;;;;;5073391;28;20426;-83
2021/10/09 07:54:45;;;;;;;40.17;36.63;;;;;;;;;;5073463;28;20408;-84
2021/10/09 07:57:12;;;;;;;43.10;39.00;;;;;;;;;;5073033;28;20408;-84
2021/10/09 07:59:39;;;;;;;40.30;36.80;;;;;;;;;;5073506;28;20489;-83
2021/10/09 08:02:07;;;;;;;40.47;36.63;;;;;;;;;;5072940;28;20409;-84
2021/10/09 08:04:34;;;;;;;38.13;34.50;;;;;;;;;;5072911;28;20415;-84
2021/10/09 08:07:01;;;;;;;38.50;34.50;;;;;;;;;;5073202;28;20460;-84
2021/10/09 08:09:33;;;;;;;38.30;34.67;;;;;;;;;;5073104;28;20456;-84
2021/10/09 08:12:00;;;;;;;40.13;36.30;;;;;;;;;;5073079;28;20416;-84
2021/10/09 08:14:27;;;;;;;36.60;33.33;;;;;;;;;;5073031;28;20445;-83
2021/10/09 08:16:55;;;;;;;37.47;34.27;;;;;;;;;;5072850;28;20427;-84
2021/10/09 08:19:22;;;;;;;37.17;34.00;;;;;;;;;;5072600;28;20468;-83
2021/10/09 08:21:51;;;;;;;37.97;34.50;;;;;;;;;;5073076;28;20485;-84
2021/10/09 08:24:28;;;;;;;37.83;34.17;;;;;;;;;;5072799;28;20453;-83
2021/10/09 08:27:15;;;;;;;35.53;32.53;;;;;;;;;;5072891;28;20434;-84
2021/10/09 08:35:30;;;;;;;35.77;32.53;;;;;;;;;;5076630;28;20427;-84
2021/10/09 08:40:43;;;;;;;34.90;31.80;;;;;;;;;;5076230;28;20948;-84
2021/10/09 08:43:12;;;;;;;36.57;33.37;;;;;;;;;;5076717;28;20445;-84
2021/10/09 08:45:40;;;;;;;35.70;32.60;;;;;;;;;;5076599;28;20419;-84
2021/10/09 08:48:07;;;;;;;33.73;30.77;;;;;;;;;;5076400;28;20408;-83
2021/10/09 08:50:35;;;;;;;37.80;33.87;;;;;;;;;;5076100;28;20399;-84
2021/10/09 08:53:07;;;;;;;36.30;32.93;;;;;;;;;;5076453;28;20495;-84
2021/10/09 08:55:37;;;;;;;35.97;32.80;;;;;;;;;;5076495;28;20492;-84
2021/10/09 08:58:06;;;;;;;36.20;33.23;;;;;;;;;;5076013;28;20419;-84
2021/10/09 09:03:31;;;;;;;36.63;33.33;;;;;;;;;;5072980;28;20449;-90
2021/10/09 09:25:58;;;;;;;36.23;32.90;;;;;;;;;;5075757;28;20474;-84
2021/10/09 09:39:44;;;;;;;36.23;32.43;;;;;;;;;;5013141;28;21009;-84
2021/10/09 09:42:12;;;;;;;36.23;32.73;;;;;;;;;;5012450;28;20454;-84
2021/10/09 09:44:53;;;;;;;36.30;33.10;;;;;;;;;;5013514;28;20467;-83
2021/10/09 09:47:20;;;;;;;36.00;32.77;;;;;;;;;;5013604;28;20411;-84
2021/10/09 09:49:49;;;;;;;35.90;32.63;;;;;;;;;;5013109;28;20562;-84
2021/10/09 09:52:17;;;;;;;34.50;31.53;;;;;;;;;;5013229;28;20870;-84
2021/10/09 09:54:45;;;;;;;36.20;33.00;;;;;;;;;;5013427;28;20437;-84
2021/10/09 09:57:14;;;;;;;31.43;28.67;;;;;;;;;;5013257;28;20548;-83
2021/10/09 09:59:44;;;;;;;35.63;32.40;;;;;;;;;;5013052;28;20579;-84
2021/10/09 10:02:12;;;;;;;33.70;30.83;;;;;;;;;;5012958;28;20513;-84
2021/10/09 10:04:39;;;;;;;32.90;29.80;;;;;;;;;;5013272;28;20442;-83
2021/10/09 10:07:10;;;;;;;33.30;30.60;;;;;;;;;;5013039;28;20419;-83
2021/10/09 10:09:38;;;;;;;34.37;31.43;;;;;;;;;;5075017;28;20404;-83
2021/10/09 10:12:07;;;;;;;52.93;34.03;;;;;;;;;;5074945;28;20419;-83
2021/10/09 10:14:34;;;;;;;34.97;31.70;;;;;;;;;;5074509;28;20499;-84
2021/10/09 10:17:02;;;;;;;34.97;32.13;;;;;;;;;;5074730;28;20461;-84
2021/10/09 10:19:48;;;;;;;35.17;31.93;;;;;;;;;;5074031;28;20456;-84
2021/10/09 10:22:17;;;;;;;33.90;31.30;;;;;;;;;;5074637;28;20456;-84
2021/10/09 10:24:45;;;;;;;35.13;31.40;;;;;;;;;;5074593;28;20503;-84
2021/10/09 10:27:32;;;;;;;35.63;32.63;;;;;;;;;;5074148;28;20478;-84
2021/10/09 10:30:18;;;;;;;34.57;31.43;;;;;;;;;;5074501;28;20543;-84
2021/10/09 10:33:18;;;;;;;35.30;32.23;;;;;;;;;;5074350;28;20865;-83
2021/10/09 10:35:48;;;;;;;34.80;32.00;;;;;;;;;;5074057;28;20420;-84
2021/10/09 10:38:34;;;;;;;38.50;35.03;;;;;;;;;;5074027;28;20427;-84
2021/10/09 10:41:04;;;;;;;34.13;31.00;;;;;;;;;;5072665;28;20479;-84
2021/10/09 10:43:45;;;;;;;35.10;32.00;;;;;;;;;;5073985;28;20416;-83
2021/10/09 10:46:34;;;;;;;35.57;32.53;;;;;;;;;;5074123;28;20411;-84
2021/10/09 10:49:04;;;;;;;34.27;31.30;;;;;;;;;;5073768;28;20496;-83
2021/10/09 10:51:43;;;;;;;34.43;31.77;;;;;;;;;;5073674;28;20437;-83
2021/10/09 10:54:14;;;;;;;34.47;31.60;;;;;;;;;;5073596;28;20416;-84
2021/10/09 10:57:01;;;;;;;34.70;31.63;;;;;;;;;;5073747;28;20420;-84
2021/10/09 10:59:31;;;;;;;31.50;29.00;;;;;;;;;;5073774;28;20536;-87
2021/10/09 11:02:10;;;;;;;32.80;30.20;;;;;;;;;;5073981;28;20938;-83
2021/10/09 11:04:39;;;;;;;32.63;29.93;;;;;;;;;;5073900;28;20718;-83
2021/10/09 11:07:07;;;;;;;34.03;31.10;;;;;;;;;;5072284;28;20456;-83
2021/10/09 11:09:36;;;;;;;32.33;29.77;;;;;;;;;;5073487;28;20396;-82
2021/10/09 11:12:05;;;;;;;32.90;29.60;;;;;;;;;;5072314;28;20507;-83
2021/10/09 11:14:34;;;;;;;34.17;31.20;;;;;;;;;;5073779;28;20447;-83
2021/10/09 11:17:02;;;;;;;32.57;29.77;;;;;;;;;;5073673;28;20404;-83
2021/10/09 11:19:45;;;;;;;29.57;27.33;;;;;;;;;;5072966;28;20492;-84
2021/10/09 11:22:14;;;;;;;32.40;29.77;;;;;;;;;;5071709;28;20454;-84
2021/10/09 11:24:43;;;;;;;32.90;30.07;;;;;;;;;;5073107;28;20416;-83
2021/10/09 11:27:11;;;;;;;33.03;29.50;;;;;;;;;;5073357;28;20416;-83
2021/10/09 11:29:40;;;;;;;29.10;26.80;;;;;;;;;;5073064;28;20438;-84
2021/10/09 11:32:08;;;;;;;29.83;27.53;;;;;;;;;;5073224;28;20438;-83
2021/10/09 11:34:49;;;;;;;28.57;26.07;;;;;;;;;;5073414;28;20912;-84
2021/10/09 11:37:16;;;;;;;30.43;27.70;;;;;;;;;;5072988;28;20418;-84
2021/10/09 11:39:47;;;;;;;31.73;28.47;;;;;;;;;;5072749;28;20444;-84
2021/10/09 11:42:17;;;;;;;31.20;28.33;;;;;;;;;;5071708;28;20446;-84
2021/10/09 11:45:00;;;;;;;30.77;28.47;;;;;;;;;;5073269;28;20416;-84
2021/10/09 11:53:27;;;;;;;28.67;26.47;;;;;;;;;;5073287;28;20460;-83
2021/10/09 11:55:59;;;;;;;30.67;28.20;;;;;;;;;;5072842;28;20437;-83
2021/10/09 11:58:27;;;;;;;30.60;28.10;;;;;;;;;;5072745;28;20927;-83
2021/10/09 12:00:56;;;;;;;31.50;28.73;;;;;;;;;;5071254;28;21020;-84
2021/10/09 12:03:30;;;;;;;31.70;28.90;;;;;;;;;;5072960;28;20427;-83
2021/10/09 12:05:58;;;;;;;29.33;27.17;;;;;;;;;;5074574;28;20907;-83
2021/10/09 12:08:26;;;;;;;30.87;28.13;;;;;;;;;;5076817;28;20408;-83
2021/10/09 12:11:13;;;;;;;30.13;27.53;;;;;;;;;;5076958;28;20420;-83
2021/10/09 12:13:47;;;;;;;29.50;27.17;;;;;;;;;;5076807;28;20404;-84
2021/10/09 12:16:16;;;;;;;29.43;27.17;;;;;;;;;;5076691;28;20939;-83
2021/10/09 12:18:48;;;;;;;27.37;25.10;;;;;;;;;;5076625;28;20496;-84
2021/10/09 12:21:15;;;;;;;28.83;26.60;;;;;;;;;;5076446;28;21002;-83
2021/10/09 12:23:42;;;;;;;30.70;28.13;;;;;;;;;;5076525;28;20400;-83
2021/10/09 12:26:13;;;;;;;30.03;27.63;;;;;;;;;;5076699;28;20430;-83
2021/10/09 12:28:59;;;;;;;28.47;25.90;;;;;;;;;;5076355;28;20780;-84
2021/10/09 12:31:32;;;;;;;27.37;25.27;;;;;;;;;;5076236;28;20415;-82
2021/10/09 12:33:59;;;;;;;29.30;26.73;;;;;;;;;;5076329;28;20406;-83
2021/10/09 12:36:31;;;;;;;28.20;25.80;;;;;;;;;;5076473;28;20797;-82
2021/10/09 12:38:59;;;;;;;28.73;26.30;;;;;;;;;;5076480;28;20438;-83
2021/10/09 12:41:27;;;;;;;29.50;27.07;;;;;;;;;;5076212;28;20477;-83
2021/10/09 12:43:55;;;;;;;28.83;26.20;;;;;;;;;;5076567;28;20423;-83
2021/10/09 12:46:22;;;;;;;28.30;25.87;;;;;;;;;;5076330;28;20416;-83
2021/10/09 12:48:51;;;;;;;30.70;27.97;;;;;;;;;;5074668;28;20766;-83
2021/10/09 12:51:18;;;;;;;30.20;27.80;;;;;;;;;;5075896;28;20426;-84
2021/10/09 12:53:46;;;;;;;29.53;27.43;;;;;;;;;;5076128;28;20441;-83
2021/10/09 12:56:13;;;;;;;29.37;27.17;;;;;;;;;;5075781;28;20924;-83
2021/10/09 12:58:40;;;;;;;32.10;29.37;;;;;;;;;;5075870;28;20409;-83
2021/10/09 13:01:08;;;;;;;27.80;25.90;;;;;;;;;;5075820;28;20448;-83
2021/10/09 13:03:35;;;;;;;28.27;25.83;;;;;;;;;;5075980;28;20424;-83
2021/10/09 13:06:04;;;;;;;28.33;26.30;;;;;;;;;;5076068;28;20775;-83
2021/10/09 13:08:31;;;;;;;29.00;26.07;;;;;;;;;;5075797;28;20438;-83
2021/10/09 13:11:00;;;;;;;29.00;26.67;;;;;;;;;;5075655;28;20410;-83
2021/10/09 13:13:27;;;;;;;25.87;24.10;;;;;;;;;;5075655;28;20428;-83
2021/10/09 13:15:54;;;;;;;28.07;25.77;;;;;;;;;;5074814;28;20882;-82
2021/10/09 13:18:22;;;;;;;28.40;26.20;;;;;;;;;;5075148;28;20459;-83
2021/10/09 13:20:49;;;;;;;30.17;27.93;;;;;;;;;;5075500;28;20480;-83
2021/10/09 13:23:18;;;;;;;29.63;27.53;;;;;;;;;;5075604;28;20438;-83
2021/10/09 13:25:45;;;;;;;29.60;27.30;;;;;;;;;;5075462;28;20441;-82
2021/10/09 13:28:13;;;;;;;30.47;27.87;;;;;;;;;;5075499;28;20469;-83
2021/10/09 13:30:40;;;;;;;29.27;27.07;;;;;;;;;;5075373;28;20450;-83
2021/10/09 13:33:08;;;;;;;30.70;28.20;;;;;;;;;;5075428;28;20457;-83
2021/10/09 13:35:36;;;;;;;29.67;27.17;;;;;;;;;;5075175;28;20449;-83
2021/10/09 13:38:04;;;;;;;28.63;26.23;;;;;;;;;;5075260;28;20432;-83
2021/10/09 13:40:32;;;;;;;29.07;26.87;;;;;;;;;;5075250;28;20504;-83
2021/10/09 13:43:00;;;;;;;29.60;27.37;;;;;;;;;;5075186;28;20417;-83
2021/10/09 13:45:27;;;;;;;29.60;27.23;;;;;;;;;;5075003;28;20763;-83
2021/10/09 13:47:55;;;;;;;30.27;27.80;;;;;;;;;;5074844;28;20453;-83
2021/10/09 13:50:23;;;;;;;28.07;25.93;;;;;;;;;;5074999;28;20900;-83
2021/10/09 13:52:50;;;;;;;30.67;28.00;;;;;;;;;;5074855;28;20442;-83
2021/10/09 13:55:17;;;;;;;30.13;27.73;;;;;;;;;;5074768;28;20416;-83
2021/10/09 13:57:46;;;;;;;29.17;26.83;;;;;;;;;;5074790;28;20449;-83
2021/10/09 14:00:15;;;;;;;28.67;26.47;;;;;;;;;;5074878;28;20442;-83
2021/10/09 14:02:42;;;;;;;29.27;27.13;;;;;;;;;;5074882;28;20487;-83
2021/10/09 14:05:10;;;;;;;33.77;30.90;;;;;;;;;;5074431;28;20418;-82
2021/10/09 14:07:38;;;;;;;30.00;27.77;;;;;;;;;;5074413;28;20930;-83
2021/10/09 14:10:05;;;;;;;39.63;36.13;;;;;;;;;;5074375;28;20404;-83
2021/10/09 14:12:33;;;;;;;30.27;27.63;;;;;;;;;;5074691;28;20439;-83
2021/10/09 14:15:03;;;;;;;31.70;29.20;;;;;;;;;;5074598;28;20500;-82
2021/10/09 14:17:31;;;;;;;32.00;29.37;;;;;;;;;;5072849;28;20528;-83
2021/10/09 14:19:59;;;;;;;28.97;26.80;;;;;;;;;;5074186;28;20473;-82
2021/10/09 14:22:27;;;;;;;28.83;26.77;;;;;;;;;;5074081;28;20477;-83
2021/10/09 14:24:55;;;;;;;27.80;25.90;;;;;;;;;;5074275;28;20458;-82
2021/10/09 14:27:23;;;;;;;28.60;26.63;;;;;;;;;;5073555;28;20493;-82
2021/10/09 14:29:50;;;;;;;27.60;25.50;;;;;;;;;;5073046;28;20957;-84
2021/10/09 14:32:19;;;;;;;28.37;26.10;;;;;;;;;;5074252;28;20442;-84
2021/10/09 14:34:47;;;;;;;28.23;26.03;;;;;;;;;;5074314;28;20409;-84
2021/10/09 14:37:14;;;;;;;28.30;26.30;;;;;;;;;;5073966;28;20405;-83
2021/10/09 14:39:43;;;;;;;27.00;25.00;;;;;;;;;;5074097;28;20444;-84
2021/10/09 14:42:11;;;;;;;28.00;26.00;;;;;;;;;;5074058;28;20492;-83
2021/10/09 14:44:38;;;;;;;29.17;26.93;;;;;;;;;;5072730;28;20424;-83
2021/10/09 14:49:57;;;;;;;27.30;25.20;;;;;;;;;;5068322;28;20898;-84
2021/10/09 14:52:32;;;;;;;28.20;25.77;;;;;;;;;;5073761;28;20420;-83
2021/10/09 15:17:24;;;;;;;30.30;27.90;;;;;;;;;;5110637;28;20441;-82
2021/10/09 15:19:52;;;;;;;31.27;28.80;;;;;;;;;;5109201;28;20523;-82
2021/10/09 15:22:19;;;;;;;30.03;27.97;;;;;;;;;;5110963;28;20450;-88
2021/10/09 15:24:46;;;;;;;32.63;29.93;;;;;;;;;;5110691;28;20423;-83
2021/10/09 15:27:14;;;;;;;33.67;30.87;;;;;;;;;;5110600;28;20458;-82
2021/10/09 15:29:43;;;;;;;28.90;27.00;;;;;;;;;;5110148;28;20475;-83
2021/10/09 15:32:10;;;;;;;28.97;26.80;;;;;;;;;;5110479;28;20448;-82
2021/10/09 15:34:39;;;;;;;30.23;27.90;;;;;;;;;;5109347;28;20419;-82
2021/10/09 15:37:06;;;;;;;29.80;27.70;;;;;;;;;;5110057;28;20561;-82
2021/10/09 15:39:34;;;;;;;30.43;28.03;;;;;;;;;;5110472;28;20443;-82
2021/10/09 15:42:03;;;;;;;30.40;27.90;;;;;;;;;;5110034;28;20437;-83
2021/10/09 15:44:30;;;;;;;30.90;27.93;;;;;;;;;;5110381;28;20772;-82
2021/10/09 15:46:59;;;;;;;29.70;27.60;;;;;;;;;;5110074;28;20406;-82
2021/10/09 15:49:27;;;;;;;30.17;27.40;;;;;;;;;;5110019;28;20408;-82
2021/10/09 15:51:55;;;;;;;31.30;28.83;;;;;;;;;;5110187;28;20890;-82
2021/10/09 15:54:22;;;;;;;28.63;26.53;;;;;;;;;;5109975;28;20421;-82
2021/10/09 15:56:50;;;;;;;29.50;27.33;;;;;;;;;;5109372;28;20496;-81
2021/10/09 15:59:17;;;;;;;30.33;27.83;;;;;;;;;;5109803;28;20499;-83
2021/10/09 16:01:45;;;;;;;29.23;26.60;;;;;;;;;;5110025;28;20416;-82
2021/10/09 16:04:14;;;;;;;29.87;27.50;;;;;;;;;;5109858;28;20912;-82
2021/10/09 16:06:41;;;;;;;30.50;27.80;;;;;;;;;;5109904;28;20833;-83
2021/10/09 16:09:09;;;;;;;30.20;28.00;;;;;;;;;;5096931;28;20437;-83
2021/10/09 16:11:36;;;;;;;29.37;27.07;;;;;;;;;;5096285;28;20819;-82
2021/10/09 16:14:07;;;;;;;30.13;27.83;;;;;;;;;;5094687;28;20807;-83
2021/10/09 16:16:35;;;;;;;29.87;27.53;;;;;;;;;;5095240;28;20542;-86
2021/10/09 16:19:02;;;;;;;31.57;28.53;;;;;;;;;;5096593;28;20436;-86
2021/10/09 16:21:31;;;;;;;30.07;27.83;;;;;;;;;;5096724;28;20451;-84
2021/10/09 16:23:59;;;;;;;29.23;27.03;;;;;;;;;;5094942;28;20411;-83
2021/10/09 16:26:26;;;;;;;31.60;28.73;;;;;;;;;;5095568;28;20445;-83
2021/10/09 16:28:54;;;;;;;30.37;28.07;;;;;;;;;;5096013;28;20416;-85
2021/10/09 16:31:24;;;;;;;30.60;28.20;;;;;;;;;;5096567;28;20487;-85
2021/10/09 16:33:52;;;;;;;32.97;30.27;;;;;;;;;;5096576;28;20411;-86
2021/10/09 16:36:19;;;;;;;331.52;171.07;;;;;;;;;;5096404;28;20477;-86
2021/10/09 16:38:49;;;;;;;31.20;28.73;;;;;;;;;;5096148;28;20198;-85
2021/10/09 16:41:16;;;;;;;31.80;29.37;;;;;;;;;;5096198;28;20483;-86
2021/10/09 16:43:44;;;;;;;31.70;29.10;;;;;;;;;;5096438;28;20407;-86
2021/10/09 16:46:11;;;;;;;30.87;28.33;;;;;;;;;;5096110;28;20416;-86
2021/10/09 16:48:38;;;;;;;31.37;28.97;;;;;;;;;;5095917;28;20838;-86